createdAt,value
2022-12-14T00:00:33.259Z,1383.29
2022-12-14T00:01:36.774Z,1440.18
2022-12-14T00:02:42.865Z,1514.21
2022-12-14T00:03:50.281Z,1461.79
2022-12-14T00:04:53.668Z,1447.09
2022-12-14T00:06:03.117Z,1398.57
2022-12-14T00:07:07.877Z,1358.20
2022-12-14T00:08:15.545Z,1346.86
2022-12-14T00:09:21.455Z,1333.54
2022-12-14T00:10:25.640Z,1317.48
2022-12-14T00:11:35.250Z,1333.33
2022-12-14T00:12:41.222Z,1333.12
2022-12-14T00:13:44.919Z,1323.85
2022-12-14T00:14:55.183Z,1296.54
2022-12-14T00:15:59.258Z,1267.42
2022-12-14T00:17:06.006Z,1246.47
2022-12-14T00:18:11.713Z,1198.85
2022-12-14T00:19:17.697Z,1180.17
2022-12-14T00:20:21.187Z,1127.25
2022-12-14T00:21:31.169Z,1075.51
2022-12-14T00:22:35.326Z,1094.90
2022-12-14T00:23:43.338Z,1084.52
2022-12-14T00:24:46.810Z,1071.40
2022-12-14T00:25:52.838Z,1091.65
2022-12-14T00:26:56.137Z,1112.04
2022-12-14T00:28:03.077Z,1094.99
2022-12-14T00:29:06.418Z,1088.92
2022-12-14T00:30:14.703Z,1086.38
2022-12-14T00:31:18.360Z,1095.26
2022-12-14T00:32:26.547Z,1097.88
2022-12-14T00:33:31.135Z,1141.42
2022-12-14T00:34:37.262Z,1147.25
2022-12-14T00:35:40.641Z,1137.23
2022-12-14T00:36:49.163Z,1242.46
2022-12-14T00:37:52.545Z,1295.88
2022-12-14T00:38:59.351Z,1320.68
2022-12-14T00:40:02.724Z,1312.09
2022-12-14T00:41:10.070Z,1337.04
2022-12-14T00:42:13.419Z,1383.54
2022-12-14T00:43:19.407Z,1428.03
2022-12-14T00:44:26.430Z,1456.52
2022-12-14T00:45:29.795Z,1425.26
2022-12-14T00:46:35.819Z,1431.92
2022-12-14T00:47:40.975Z,1443.73
2022-12-14T00:48:47.262Z,1514.57
2022-12-14T00:49:53.655Z,1442.53
2022-12-14T00:51:00.095Z,1455.10
2022-12-14T00:52:08.912Z,1450.61
2022-12-14T00:53:12.702Z,1475.11
2022-12-14T00:54:19.131Z,1477.79
2022-12-14T00:55:23.422Z,1462.60
2022-12-14T00:56:29.505Z,1460.01
2022-12-14T00:57:32.820Z,1451.37
2022-12-14T00:58:39.128Z,1420.60
2022-12-14T00:59:43.327Z,1442.40
2022-12-14T01:01:02.356Z,1399.53
2022-12-14T01:02:06.359Z,1391.97
2022-12-14T01:03:13.905Z,1405.88
2022-12-14T01:04:22.619Z,1369.61
2022-12-14T01:05:29.076Z,1377.50
2022-12-14T01:06:33.182Z,1361.85
2022-12-14T01:07:41.771Z,1352.59
2022-12-14T01:08:45.210Z,1331.65
2022-12-14T01:09:51.177Z,1293.13
2022-12-14T01:10:54.753Z,1301.74
2022-12-14T01:12:01.575Z,1294.93
2022-12-14T01:13:04.859Z,1266.80
2022-12-14T01:14:12.280Z,1282.74
2022-12-14T01:15:15.636Z,1214.59
2022-12-14T01:16:21.663Z,1189.32
2022-12-14T01:17:28.615Z,1183.27
2022-12-14T01:18:35.472Z,1170.88
2022-12-14T01:19:41.617Z,1148.31
2022-12-14T01:20:45.060Z,1135.02
2022-12-14T01:21:51.071Z,1100.74
2022-12-14T01:22:58.060Z,1088.12
2022-12-14T01:24:06.702Z,1073.16
2022-12-14T01:25:10.291Z,1073.04
2022-12-14T01:26:17.997Z,1048.29
2022-12-14T01:27:21.520Z,1038.44
2022-12-14T01:28:28.513Z,1027.08
2022-12-14T01:29:34.515Z,1036.19
2022-12-14T01:30:40.508Z,1078.63
2022-12-14T01:31:48.621Z,1064.67
2022-12-14T01:32:53.050Z,1084.14
2022-12-14T01:34:00.959Z,1081.18
2022-12-14T01:35:05.305Z,1047.60
2022-12-14T01:36:14.800Z,988.87
2022-12-14T01:37:18.178Z,982.91
2022-12-14T01:38:26.860Z,969.06
2022-12-14T01:39:34.208Z,952.61
2022-12-14T01:40:38.044Z,965.28
2022-12-14T01:41:47.541Z,962.00
2022-12-14T01:42:50.967Z,1001.58
2022-12-14T01:44:00.272Z,963.48
2022-12-14T01:45:07.455Z,990.76
2022-12-14T01:46:13.565Z,1027.76
2022-12-14T01:47:31.788Z,1050.50
2022-12-14T01:48:35.270Z,1052.64
2022-12-14T01:49:52.021Z,1066.56
2022-12-14T01:50:56.387Z,1051.57
2022-12-14T01:52:12.657Z,1057.10
2022-12-14T01:53:28.978Z,1067.39
2022-12-14T01:54:41.073Z,1059.99
2022-12-14T01:55:55.022Z,1083.02
2022-12-14T01:57:00.093Z,1108.34
2022-12-14T01:58:14.356Z,1092.35
2022-12-14T01:59:26.831Z,1114.31
2022-12-14T02:00:33.342Z,1108.92
2022-12-14T02:01:37.674Z,1111.50
2022-12-14T02:02:51.344Z,1110.85
2022-12-14T02:03:55.303Z,1105.80
2022-12-14T02:05:08.953Z,1130.21
2022-12-14T02:06:20.137Z,1181.43
2022-12-14T02:07:30.876Z,1178.69
2022-12-14T02:08:47.059Z,1150.49
2022-12-14T02:09:54.135Z,1165.95
2022-12-14T02:11:02.902Z,1198.25
2022-12-14T02:12:15.357Z,1159.72
2022-12-14T02:13:29.205Z,1151.40
2022-12-14T02:14:34.506Z,1145.78
2022-12-14T02:15:42.620Z,1123.23
2022-12-14T02:16:46.217Z,1112.19
2022-12-14T02:17:53.119Z,1063.01
2022-12-14T02:18:56.505Z,1045.16
2022-12-14T02:20:02.906Z,1022.89
2022-12-14T02:21:35.435Z,1028.86
2022-12-14T02:23:35.491Z,1014.95
2022-12-14T02:25:20.553Z,1010.50
2022-12-14T02:27:00.255Z,1012.53
2022-12-14T02:28:56.612Z,1008.69
2022-12-14T02:30:08.966Z,989.47
2022-12-14T02:31:28.884Z,976.51
2022-12-14T02:33:04.998Z,989.56
2022-12-14T02:34:24.868Z,997.14
2022-12-14T02:35:49.764Z,948.70
2022-12-14T02:37:04.566Z,975.82
2022-12-14T02:38:34.839Z,955.13
2022-12-14T02:40:00.595Z,943.17
2022-12-14T02:41:20.260Z,977.40
2022-12-14T02:42:40.323Z,975.29
2022-12-14T02:44:07.291Z,981.44
2022-12-14T02:45:27.584Z,962.88
2022-12-14T02:46:50.560Z,954.43
2022-12-14T02:48:03.513Z,947.45
2022-12-14T02:49:19.276Z,924.06
2022-12-14T02:50:34.336Z,928.43
2022-12-14T02:51:59.162Z,944.13
2022-12-14T02:53:16.119Z,953.85
2022-12-14T02:54:34.627Z,936.60
2022-12-14T02:55:50.397Z,941.43
2022-12-14T02:57:12.264Z,923.01
2022-12-14T02:58:24.663Z,933.38
2022-12-14T02:59:31.839Z,922.21
2022-12-14T03:00:39.408Z,948.95
2022-12-14T03:01:47.970Z,957.94
2022-12-14T03:02:54.130Z,942.75
2022-12-14T03:04:00.373Z,931.84
2022-12-14T03:05:05.163Z,947.04
2022-12-14T03:06:26.437Z,941.42
2022-12-14T03:07:45.721Z,940.43
2022-12-14T03:09:04.171Z,948.70
2022-12-14T03:10:35.832Z,948.80
2022-12-14T03:11:56.386Z,956.50
2022-12-14T03:13:18.825Z,968.55
2022-12-14T03:14:31.922Z,941.92
2022-12-14T03:15:48.459Z,956.45
2022-12-14T03:16:57.578Z,934.95
2022-12-14T03:18:10.121Z,951.06
2022-12-14T03:19:23.539Z,913.32
2022-12-14T03:20:37.102Z,927.81
2022-12-14T03:21:51.880Z,911.70
2022-12-14T03:23:04.005Z,900.38
2022-12-14T03:24:19.315Z,868.10
2022-12-14T03:25:38.119Z,869.26
2022-12-14T03:26:53.753Z,857.59
2022-12-14T03:28:10.186Z,857.27
2022-12-14T03:29:23.130Z,854.09
2022-12-14T03:30:58.698Z,843.67
2022-12-14T03:32:06.987Z,827.53
2022-12-14T03:33:19.634Z,833.92
2022-12-14T03:34:34.690Z,825.97
2022-12-14T03:35:47.183Z,821.81
2022-12-14T03:37:03.359Z,816.47
2022-12-14T03:38:19.943Z,816.62
2022-12-14T03:39:36.546Z,789.29
2022-12-14T03:40:51.136Z,802.78
2022-12-14T03:42:13.670Z,782.59
2022-12-14T03:43:34.399Z,801.44
2022-12-14T03:44:50.295Z,799.14
2022-12-14T03:46:10.315Z,788.26
2022-12-14T03:47:46.915Z,775.52
2022-12-14T03:48:56.853Z,785.60
2022-12-14T03:50:11.618Z,787.03
2022-12-14T03:51:33.746Z,765.72
2022-12-14T03:52:46.876Z,755.36
2022-12-14T03:54:09.858Z,738.12
2022-12-14T03:55:33.374Z,732.85
2022-12-14T03:56:53.057Z,716.26
2022-12-14T03:58:26.641Z,722.71
2022-12-14T03:59:50.007Z,710.62
2022-12-14T04:01:07.036Z,722.41
2022-12-14T04:02:29.369Z,739.11
2022-12-14T04:03:56.670Z,749.29
2022-12-14T04:05:12.805Z,737.48
2022-12-14T04:06:32.359Z,752.95
2022-12-14T04:07:48.595Z,753.76
2022-12-14T04:09:07.309Z,733.88
2022-12-14T04:10:35.138Z,779.20
2022-12-14T04:12:06.501Z,768.36
2022-12-14T04:13:33.262Z,757.49
2022-12-14T04:15:02.815Z,759.77
2022-12-14T04:16:30.841Z,766.53
2022-12-14T04:17:57.954Z,790.68
2022-12-14T04:19:15.969Z,810.90
2022-12-14T04:20:31.188Z,803.93
2022-12-14T04:21:44.929Z,807.89
2022-12-14T04:23:02.439Z,811.13
2022-12-14T04:24:35.941Z,844.42
2022-12-14T04:26:02.554Z,836.52
2022-12-14T04:27:21.752Z,821.03
2022-12-14T04:28:50.752Z,821.80
2022-12-14T04:30:03.726Z,820.13
2022-12-14T04:31:15.349Z,833.24
2022-12-14T04:32:30.960Z,847.82
2022-12-14T04:33:47.655Z,857.57
2022-12-14T04:35:03.989Z,843.10
2022-12-14T04:36:08.564Z,846.06
2022-12-14T04:37:22.904Z,858.73
2022-12-14T04:38:37.708Z,874.87
2022-12-14T04:39:54.828Z,871.27
2022-12-14T04:41:10.621Z,884.59
2022-12-14T04:42:21.801Z,874.56
2022-12-14T04:43:34.905Z,883.95
2022-12-14T04:44:46.760Z,874.17
2022-12-14T04:46:02.471Z,849.13
2022-12-14T04:47:17.578Z,848.65
2022-12-14T04:48:37.166Z,825.34
2022-12-14T04:49:56.555Z,821.06
2022-12-14T04:51:17.623Z,808.15
2022-12-14T04:52:36.458Z,804.58
2022-12-14T04:53:50.685Z,769.42
2022-12-14T04:55:06.011Z,772.09
2022-12-14T04:56:23.734Z,755.04
2022-12-14T04:57:40.798Z,761.63
2022-12-14T04:58:44.802Z,744.56
2022-12-14T04:59:53.482Z,719.68
2022-12-14T05:01:22.778Z,691.33
2022-12-14T05:03:00.185Z,681.92
2022-12-14T05:04:19.249Z,707.43
2022-12-14T05:05:39.767Z,714.91
2022-12-14T05:07:07.729Z,722.18
2022-12-14T05:08:26.682Z,688.45
2022-12-14T05:09:42.296Z,725.02
2022-12-14T05:11:14.955Z,737.44
2022-12-14T05:12:34.185Z,706.45
2022-12-14T05:13:48.948Z,717.54
2022-12-14T05:15:09.424Z,736.04
2022-12-14T05:16:20.482Z,732.73
2022-12-14T05:17:27.459Z,731.48
2022-12-14T05:18:36.669Z,717.69
2022-12-14T05:19:49.130Z,698.80
2022-12-14T05:20:55.100Z,694.32
2022-12-14T05:22:10.839Z,666.14
2022-12-14T05:23:16.615Z,676.92
2022-12-14T05:24:22.524Z,670.94
2022-12-14T05:25:28.640Z,674.06
2022-12-14T05:26:32.648Z,675.21
2022-12-14T05:27:38.610Z,681.41
2022-12-14T05:28:45.924Z,670.51
2022-12-14T05:29:58.432Z,663.88
2022-12-14T05:31:01.905Z,666.89
2022-12-14T05:32:07.951Z,672.67
2022-12-14T05:33:19.571Z,667.64
2022-12-14T05:34:27.012Z,671.74
2022-12-14T05:35:30.473Z,663.60
2022-12-14T05:36:39.017Z,656.66
2022-12-14T05:37:45.448Z,657.49
2022-12-14T05:38:52.733Z,661.50
2022-12-14T05:39:59.358Z,654.26
2022-12-14T05:41:02.746Z,657.06
2022-12-14T05:42:10.547Z,657.02
2022-12-14T05:43:14.261Z,669.48
2022-12-14T05:44:20.167Z,651.76
2022-12-14T05:45:24.416Z,654.24
2022-12-14T05:46:30.435Z,647.61
2022-12-14T05:47:33.847Z,639.69
2022-12-14T05:48:39.690Z,656.67
2022-12-14T05:49:45.712Z,638.16
2022-12-14T05:50:54.031Z,642.08
2022-12-14T05:52:02.839Z,630.14
2022-12-14T05:53:06.239Z,627.13
2022-12-14T05:54:12.264Z,637.03
2022-12-14T05:55:17.220Z,644.43
2022-12-14T05:56:24.129Z,629.13
2022-12-14T05:57:30.018Z,634.06
2022-12-14T05:58:34.257Z,630.46
2022-12-14T05:59:40.280Z,628.51
2022-12-14T06:00:43.586Z,635.79
2022-12-14T06:01:53.248Z,634.99
2022-12-14T06:02:56.606Z,622.30
2022-12-14T06:04:02.686Z,627.94
2022-12-14T06:05:07.181Z,615.09
2022-12-14T06:06:16.594Z,606.89
2022-12-14T06:07:27.713Z,611.16
2022-12-14T06:08:38.581Z,606.47
2022-12-14T06:09:44.454Z,592.86
2022-12-14T06:10:47.688Z,609.11
2022-12-14T06:11:53.861Z,606.40
2022-12-14T06:12:58.182Z,619.41
2022-12-14T06:14:04.153Z,610.92
2022-12-14T06:15:09.038Z,617.77
2022-12-14T06:16:19.147Z,614.17
2022-12-14T06:17:22.456Z,612.93
2022-12-14T06:18:29.172Z,631.58
2022-12-14T06:19:35.071Z,638.26
2022-12-14T06:20:38.412Z,623.64
2022-12-14T06:21:46.856Z,627.07
2022-12-14T06:22:55.270Z,629.34
2022-12-14T06:24:03.352Z,629.87
2022-12-14T06:25:08.774Z,635.50
2022-12-14T06:26:15.979Z,617.97
2022-12-14T06:27:21.924Z,623.02
2022-12-14T06:28:26.317Z,615.69
2022-12-14T06:29:33.595Z,630.60
2022-12-14T06:30:36.973Z,619.82
2022-12-14T06:31:43.032Z,628.23
2022-12-14T06:32:46.513Z,626.89
2022-12-14T06:33:53.482Z,616.80
2022-12-14T06:35:00.259Z,604.82
2022-12-14T06:36:04.604Z,625.38
2022-12-14T06:37:10.813Z,614.90
2022-12-14T06:38:18.189Z,628.62
2022-12-14T06:39:24.245Z,630.23
2022-12-14T06:40:28.418Z,618.91
2022-12-14T06:41:34.838Z,620.97
2022-12-14T06:42:40.744Z,618.70
2022-12-14T06:43:49.353Z,613.75
2022-12-14T06:44:55.767Z,607.44
2022-12-14T06:46:00.104Z,617.26
2022-12-14T06:47:06.133Z,606.23
2022-12-14T06:48:10.043Z,631.83
2022-12-14T06:49:19.806Z,619.52
2022-12-14T06:50:23.213Z,603.27
2022-12-14T06:51:30.074Z,603.41
2022-12-14T06:52:37.743Z,619.49
2022-12-14T06:53:43.861Z,636.48
2022-12-14T06:54:50.816Z,649.64
2022-12-14T06:55:54.111Z,658.26
2022-12-14T06:57:00.927Z,684.35
2022-12-14T06:58:04.509Z,686.79
2022-12-14T06:59:11.575Z,703.34
2022-12-14T07:00:18.553Z,690.06
2022-12-14T07:01:29.035Z,682.49
2022-12-14T07:02:36.169Z,667.76
2022-12-14T07:03:43.759Z,685.04
2022-12-14T07:04:49.624Z,697.59
2022-12-14T07:05:57.529Z,700.08
2022-12-14T07:07:03.398Z,684.51
2022-12-14T07:08:07.584Z,701.86
2022-12-14T07:09:18.296Z,697.19
2022-12-14T07:10:24.364Z,689.86
2022-12-14T07:11:33.499Z,710.43
2022-12-14T07:12:37.477Z,702.80
2022-12-14T07:13:45.212Z,709.83
2022-12-14T07:14:54.895Z,705.43
2022-12-14T07:16:00.378Z,711.01
2022-12-14T07:17:07.547Z,706.19
2022-12-14T07:18:11.026Z,682.64
2022-12-14T07:19:18.322Z,685.21
2022-12-14T07:20:24.392Z,686.96
2022-12-14T07:21:30.532Z,700.02
2022-12-14T07:22:37.344Z,684.59
2022-12-14T07:23:43.157Z,679.57
2022-12-14T07:24:53.274Z,656.43
2022-12-14T07:26:02.732Z,678.37
2022-12-14T07:27:09.444Z,671.26
2022-12-14T07:28:12.702Z,644.97
2022-12-14T07:29:18.864Z,645.59
2022-12-14T07:30:23.125Z,638.26
2022-12-14T07:31:31.700Z,608.19
2022-12-14T07:32:37.732Z,581.97
2022-12-14T07:33:41.117Z,580.59
2022-12-14T07:34:47.041Z,569.90
2022-12-14T07:35:51.672Z,569.15
2022-12-14T07:36:58.534Z,561.84
2022-12-14T07:38:04.565Z,557.02
2022-12-14T07:39:10.968Z,556.09
2022-12-14T07:40:20.074Z,552.33
2022-12-14T07:41:27.118Z,556.12
2022-12-14T07:42:33.291Z,559.79
2022-12-14T07:43:36.875Z,566.08
2022-12-14T07:44:42.844Z,565.52
2022-12-14T07:45:46.191Z,551.51
2022-12-14T07:46:53.378Z,542.31
2022-12-14T07:47:59.329Z,547.31
2022-12-14T07:49:06.813Z,556.62
2022-12-14T07:50:13.508Z,546.85
2022-12-14T07:51:23.943Z,565.37
2022-12-14T07:52:37.152Z,551.29
2022-12-14T07:53:45.390Z,544.42
2022-12-14T07:54:52.662Z,561.54
2022-12-14T07:56:05.599Z,530.85
2022-12-14T07:57:11.457Z,501.09
2022-12-14T07:58:16.070Z,532.66
2022-12-14T07:59:22.472Z,585.02
2022-12-14T08:00:25.956Z,531.41
2022-12-14T08:01:34.632Z,489.57
2022-12-14T08:02:40.681Z,501.81
2022-12-14T08:03:51.075Z,502.45
2022-12-14T08:04:57.117Z,509.94
2022-12-14T08:06:04.541Z,507.69
2022-12-14T08:07:10.394Z,531.69
2022-12-14T08:08:14.112Z,529.31
2022-12-14T08:09:21.215Z,539.54
2022-12-14T08:10:25.213Z,550.57
2022-12-14T08:11:33.876Z,559.66
2022-12-14T08:12:40.333Z,570.56
2022-12-14T08:13:44.055Z,566.24
2022-12-14T08:14:52.122Z,570.08
2022-12-14T08:15:58.486Z,558.74
2022-12-14T08:17:05.489Z,565.94
2022-12-14T08:18:11.397Z,561.72
2022-12-14T08:19:15.292Z,547.71
2022-12-14T08:20:22.058Z,561.20
2022-12-14T08:21:29.882Z,535.48
2022-12-14T08:22:35.926Z,538.43
2022-12-14T08:23:43.392Z,530.49
2022-12-14T08:24:49.406Z,522.91
2022-12-14T08:25:55.371Z,526.32
2022-12-14T08:27:03.925Z,518.64
2022-12-14T08:28:07.336Z,525.74
2022-12-14T08:29:15.584Z,529.18
2022-12-14T08:30:21.680Z,534.66
2022-12-14T08:31:30.917Z,542.63
2022-12-14T08:32:37.142Z,537.50
2022-12-14T08:33:45.340Z,537.76
2022-12-14T08:34:52.623Z,535.41
2022-12-14T08:35:55.976Z,530.15
2022-12-14T08:37:02.827Z,517.86
2022-12-14T08:38:06.191Z,515.78
2022-12-14T08:39:14.207Z,518.25
2022-12-14T08:40:17.596Z,523.26
2022-12-14T08:41:23.842Z,516.90
2022-12-14T08:42:36.295Z,506.72
2022-12-14T08:43:45.368Z,510.90
2022-12-14T08:44:51.302Z,524.02
2022-12-14T08:45:55.862Z,518.00
2022-12-14T08:47:01.978Z,507.27
2022-12-14T08:48:06.792Z,521.89
2022-12-14T08:49:14.248Z,530.97
2022-12-14T08:50:20.681Z,525.72
2022-12-14T08:51:29.236Z,519.23
2022-12-14T08:52:35.291Z,503.69
2022-12-14T08:53:43.413Z,499.66
2022-12-14T08:54:49.420Z,508.26
2022-12-14T08:55:53.085Z,504.58
2022-12-14T08:56:58.964Z,507.40
2022-12-14T08:58:07.488Z,514.57
2022-12-14T08:59:30.237Z,528.97
2022-12-14T09:00:41.996Z,512.95
2022-12-14T09:01:48.508Z,531.48
2022-12-14T09:02:52.585Z,513.69
2022-12-14T09:03:58.778Z,513.56
2022-12-14T09:05:06.139Z,505.56
2022-12-14T09:06:17.370Z,508.94
2022-12-14T09:07:23.362Z,513.20
2022-12-14T09:08:30.383Z,492.85
2022-12-14T09:09:38.694Z,491.01
2022-12-14T09:10:51.972Z,499.15
2022-12-14T09:11:57.998Z,484.22
2022-12-14T09:13:04.006Z,483.89
2022-12-14T09:14:09.885Z,508.79
2022-12-14T09:15:15.891Z,493.41
2022-12-14T09:16:26.511Z,484.15
2022-12-14T09:17:32.920Z,480.73
2022-12-14T09:18:39.042Z,476.91
2022-12-14T09:19:45.169Z,465.94
2022-12-14T09:20:51.868Z,469.45
2022-12-14T09:21:59.477Z,478.49
2022-12-14T09:23:05.510Z,476.71
2022-12-14T09:24:13.293Z,484.37
2022-12-14T09:25:16.919Z,505.09
2022-12-14T09:26:26.199Z,485.30
2022-12-14T09:27:33.788Z,492.39
2022-12-14T09:28:45.206Z,493.39
2022-12-14T09:29:51.320Z,494.77
2022-12-14T09:31:02.317Z,484.07
2022-12-14T09:32:09.296Z,510.72
2022-12-14T09:33:13.566Z,488.80
2022-12-14T09:34:19.617Z,502.24
2022-12-14T09:35:25.657Z,476.54
2022-12-14T09:36:32.383Z,474.40
2022-12-14T09:37:39.252Z,496.61
2022-12-14T09:38:51.572Z,489.40
2022-12-14T09:39:58.246Z,507.73
2022-12-14T09:41:07.665Z,506.61
2022-12-14T09:42:50.523Z,521.38
2022-12-14T09:44:18.734Z,515.64
2022-12-14T09:45:35.680Z,518.06
2022-12-14T09:47:01.986Z,535.53
2022-12-14T09:48:20.522Z,538.79
2022-12-14T09:49:35.331Z,524.15
2022-12-14T09:50:43.771Z,511.84
2022-12-14T09:51:47.419Z,488.95
2022-12-14T09:52:59.167Z,496.84
2022-12-14T09:54:13.928Z,490.43
2022-12-14T09:55:27.416Z,491.82
2022-12-14T09:56:36.946Z,487.07
2022-12-14T09:57:48.092Z,518.38
2022-12-14T09:59:02.387Z,496.23
2022-12-14T10:00:18.306Z,495.39
2022-12-14T10:03:54.865Z,488.02
2022-12-14T10:05:35.477Z,489.05
2022-12-14T10:06:55.609Z,479.21
2022-12-14T10:08:11.896Z,478.00
2022-12-14T10:09:32.729Z,469.57
2022-12-14T10:10:53.787Z,478.55
2022-12-14T10:12:26.315Z,464.02
2022-12-14T10:13:59.318Z,456.73
2022-12-14T10:15:27.802Z,425.09
2022-12-14T10:16:52.088Z,431.89
2022-12-14T10:19:02.028Z,417.18
2022-12-14T10:20:25.226Z,408.56
2022-12-14T10:21:47.128Z,414.19
2022-12-14T10:22:56.509Z,412.66
2022-12-14T10:24:06.734Z,412.00
2022-12-14T10:25:21.756Z,419.12
2022-12-14T10:26:39.240Z,403.64
2022-12-14T10:28:12.492Z,391.69
2022-12-14T10:29:34.633Z,387.22
2022-12-14T10:30:46.879Z,389.48
2022-12-14T10:32:08.077Z,386.81
2022-12-14T10:33:27.823Z,413.46
2022-12-14T10:34:35.087Z,383.79
2022-12-14T10:35:53.149Z,393.72
2022-12-14T10:37:23.851Z,358.33
2022-12-14T10:38:44.459Z,338.29
2022-12-14T10:40:33.545Z,333.60
2022-12-14T10:41:53.246Z,348.56
2022-12-14T10:43:46.362Z,344.48
2022-12-14T10:45:39.865Z,347.67
2022-12-14T10:47:00.134Z,342.53
2022-12-14T10:48:40.004Z,349.32
2022-12-14T10:50:00.880Z,352.89
2022-12-14T10:51:14.023Z,359.19
2022-12-14T10:52:26.595Z,375.29
2022-12-14T10:53:44.205Z,380.67
2022-12-14T10:54:57.754Z,378.32
2022-12-14T10:56:15.316Z,374.37
2022-12-14T10:57:26.658Z,366.84
2022-12-14T10:58:30.304Z,373.12
2022-12-14T10:59:47.965Z,376.46
2022-12-14T11:01:06.647Z,377.06
2022-12-14T11:02:19.380Z,370.27
2022-12-14T11:03:26.555Z,355.05
2022-12-14T11:04:39.254Z,350.50
2022-12-14T11:06:01.921Z,377.92
2022-12-14T11:07:11.486Z,380.25
2022-12-14T11:08:48.346Z,394.35
2022-12-14T11:09:56.356Z,402.04
2022-12-14T11:11:19.181Z,420.64
2022-12-14T11:12:29.994Z,404.69
2022-12-14T11:13:35.995Z,408.23
2022-12-14T11:14:53.492Z,401.64
2022-12-14T11:16:33.640Z,391.56
2022-12-14T11:17:47.225Z,370.68
2022-12-14T11:19:00.106Z,381.72
2022-12-14T11:20:24.465Z,381.03
2022-12-14T11:21:38.204Z,379.60
2022-12-14T11:22:49.210Z,369.42
2022-12-14T11:23:58.464Z,362.27
2022-12-14T11:25:04.501Z,373.15
2022-12-14T11:26:17.843Z,378.24
2022-12-14T11:27:25.146Z,380.07
2022-12-14T11:28:37.724Z,367.18
2022-12-14T11:29:51.080Z,381.39
2022-12-14T11:31:06.019Z,375.37
2022-12-14T11:32:25.951Z,379.90
2022-12-14T11:33:43.296Z,370.27
2022-12-14T11:35:00.387Z,375.66
2022-12-14T11:36:07.543Z,374.97
2022-12-14T11:37:26.543Z,361.66
2022-12-14T11:38:34.311Z,355.76
2022-12-14T11:39:45.349Z,388.50
2022-12-14T11:40:55.718Z,402.99
2022-12-14T11:42:07.036Z,380.60
2022-12-14T11:43:30.211Z,378.30
2022-12-14T11:44:40.202Z,388.44
2022-12-14T11:45:55.117Z,436.28
2022-12-14T11:47:10.007Z,410.83
2022-12-14T11:48:26.107Z,438.60
2022-12-14T11:49:46.426Z,416.59
2022-12-14T11:50:56.408Z,423.95
2022-12-14T11:52:12.253Z,444.41
2022-12-14T11:53:21.730Z,434.87
2022-12-14T11:54:30.870Z,413.01
2022-12-14T11:55:43.535Z,468.31
2022-12-14T11:56:54.401Z,442.98
2022-12-14T11:58:02.904Z,402.37
2022-12-14T11:59:09.166Z,389.33
2022-12-14T12:00:28.742Z,436.49
2022-12-14T12:01:35.178Z,491.61
2022-12-14T12:02:51.912Z,473.53
2022-12-14T12:04:01.851Z,506.11
2022-12-14T12:05:18.993Z,412.83
2022-12-14T12:06:28.684Z,430.53
2022-12-14T12:07:39.486Z,429.57
2022-12-14T12:08:47.897Z,372.44
2022-12-14T12:09:51.583Z,396.29
2022-12-14T12:11:02.373Z,405.17
2022-12-14T12:12:18.245Z,427.87
2022-12-14T12:13:33.137Z,403.49
2022-12-14T12:14:42.914Z,395.30
2022-12-14T12:15:57.557Z,434.92
2022-12-14T12:17:05.602Z,438.75
2022-12-14T12:18:24.332Z,395.14
2022-12-14T12:19:40.583Z,388.64
2022-12-14T12:21:00.148Z,434.49
2022-12-14T12:22:13.584Z,427.56
2022-12-14T12:23:29.154Z,466.62
2022-12-14T12:25:16.273Z,496.87
2022-12-14T12:26:22.851Z,467.78
2022-12-14T12:27:32.529Z,480.01
2022-12-14T12:28:50.404Z,459.53
2022-12-14T12:30:07.994Z,472.53
2022-12-14T12:31:29.375Z,437.59
2022-12-14T12:32:50.257Z,415.08
2022-12-14T12:34:05.711Z,404.79
2022-12-14T12:35:24.193Z,385.13
2022-12-14T12:36:36.534Z,391.29
2022-12-14T12:37:51.951Z,401.83
2022-12-14T12:39:09.633Z,407.01
2022-12-14T12:40:20.171Z,410.75
2022-12-14T12:41:41.209Z,402.27
2022-12-14T12:42:57.363Z,410.49
2022-12-14T12:44:24.257Z,407.00
2022-12-14T12:45:41.152Z,382.69
2022-12-14T12:47:25.564Z,369.70
2022-12-14T12:48:42.811Z,360.60
2022-12-14T12:49:48.925Z,376.04
2022-12-14T12:51:05.032Z,351.84
2022-12-14T12:52:27.259Z,350.33
2022-12-14T12:53:41.978Z,358.45
2022-12-14T12:55:04.292Z,345.80
2022-12-14T12:56:18.707Z,367.03
2022-12-14T12:57:29.443Z,371.29
2022-12-14T12:58:37.427Z,369.06
2022-12-14T12:59:53.462Z,370.71
2022-12-14T13:01:05.584Z,382.43
2022-12-14T13:02:31.499Z,381.61
2022-12-14T13:03:46.031Z,396.02
2022-12-14T13:04:56.915Z,404.53
2022-12-14T13:06:18.931Z,402.90
2022-12-14T13:07:39.670Z,429.98
2022-12-14T13:08:51.745Z,434.78
2022-12-14T13:10:06.511Z,439.56
2022-12-14T13:11:26.752Z,418.24
2022-12-14T13:12:42.150Z,413.70
2022-12-14T13:13:55.733Z,401.60
2022-12-14T13:15:08.166Z,424.50
2022-12-14T13:16:27.470Z,408.04
2022-12-14T13:17:47.166Z,408.17
2022-12-14T13:19:25.308Z,413.26
2022-12-14T13:20:36.755Z,435.22
2022-12-14T13:21:50.073Z,431.34
2022-12-14T13:23:15.230Z,431.75
2022-12-14T13:24:27.493Z,431.09
2022-12-14T13:25:55.036Z,460.69
2022-12-14T13:27:34.945Z,467.28
2022-12-14T13:29:04.822Z,480.76
2022-12-14T13:30:35.609Z,459.64
2022-12-14T13:31:58.840Z,455.11
2022-12-14T13:33:55.198Z,463.59
2022-12-14T13:35:26.162Z,465.09
2022-12-14T13:37:05.345Z,488.18
2022-12-14T13:38:48.742Z,471.13
2022-12-14T13:40:42.099Z,444.81
2022-12-14T13:42:05.071Z,451.84
2022-12-14T13:43:37.378Z,448.44
2022-12-14T13:45:01.967Z,434.69
2022-12-14T13:46:19.897Z,427.69
2022-12-14T13:47:36.004Z,437.51
2022-12-14T13:48:45.009Z,405.09
2022-12-14T13:51:37.871Z,437.77
2022-12-14T13:52:50.932Z,446.53
2022-12-14T13:54:03.675Z,456.07
2022-12-14T13:55:30.753Z,424.70
2022-12-14T13:56:42.223Z,412.17
2022-12-14T13:57:46.651Z,406.67
2022-12-14T13:59:00.545Z,404.75
2022-12-14T14:00:08.050Z,407.14
2022-12-14T14:01:39.908Z,436.19
2022-12-14T14:02:55.879Z,417.25
2022-12-14T14:04:25.967Z,427.98
2022-12-14T14:05:48.780Z,411.05
2022-12-14T14:06:56.445Z,416.31
2022-12-14T14:08:06.372Z,415.92
2022-12-14T14:10:04.447Z,431.01
2022-12-14T14:12:04.866Z,424.26
2022-12-14T14:13:55.396Z,454.60
2022-12-14T14:15:31.822Z,503.09
2022-12-14T14:16:46.058Z,655.43
2022-12-14T14:17:58.536Z,584.86
2022-12-14T14:19:22.930Z,605.73
2022-12-14T14:20:42.763Z,519.13
2022-12-14T14:22:24.635Z,469.32
2022-12-14T14:23:56.148Z,489.02
2022-12-14T14:25:10.081Z,484.01
2022-12-14T14:26:37.382Z,480.46
2022-12-14T14:27:52.617Z,472.99
2022-12-14T14:29:27.722Z,477.84
2022-12-14T14:30:44.642Z,474.91
2022-12-14T14:31:57.846Z,448.12
2022-12-14T14:33:48.708Z,440.73
2022-12-14T14:34:56.520Z,444.17
2022-12-14T14:36:13.577Z,439.50
2022-12-14T14:37:34.382Z,457.98
2022-12-14T14:38:41.742Z,457.35
2022-12-14T14:39:57.656Z,471.04
2022-12-14T14:41:17.616Z,490.25
2022-12-14T14:42:32.044Z,494.83
2022-12-14T14:43:45.360Z,535.81
2022-12-14T14:45:00.286Z,577.67
2022-12-14T14:46:14.486Z,725.92
2022-12-14T14:47:34.247Z,619.65
2022-12-14T14:48:53.270Z,564.38
2022-12-14T14:50:06.198Z,530.09
2022-12-14T14:51:27.195Z,510.81
2022-12-14T14:53:32.217Z,503.04
2022-12-14T14:56:46.657Z,489.01
2022-12-14T14:58:03.887Z,508.32
2022-12-14T14:59:50.759Z,513.28
2022-12-14T15:01:15.498Z,502.14
2022-12-14T15:02:43.146Z,486.45
2022-12-14T15:04:00.190Z,485.31
2022-12-14T15:05:40.980Z,479.15
2022-12-14T15:06:47.491Z,499.65
2022-12-14T15:07:56.769Z,506.99
2022-12-14T15:09:15.465Z,530.35
2022-12-14T15:10:35.565Z,513.25
2022-12-14T15:11:50.508Z,492.31
2022-12-14T15:13:06.263Z,481.35
2022-12-14T15:14:36.393Z,468.78
2022-12-14T15:15:48.881Z,454.61